createdAt,value
2019-01-16T00:01:26.000Z,27.5
2019-01-16T00:02:41.000Z,27.5
2019-01-16T00:03:41.000Z,27.5
2019-01-16T00:05:41.000Z,27.5
2019-01-16T00:07:41.000Z,27.4
2019-01-16T00:09:41.000Z,27.3
2019-01-16T00:10:41.000Z,27.3
2019-01-16T00:11:41.000Z,27.4
2019-01-16T00:13:26.000Z,27.5
2019-01-16T00:14:41.000Z,27.4
2019-01-16T00:15:41.000Z,27.5
2019-01-16T00:16:41.000Z,27.5
2019-01-16T00:17:41.000Z,27.5
2019-01-16T00:18:41.000Z,27.5
2019-01-16T00:19:41.000Z,27.6
2019-01-16T00:21:41.000Z,27.6
2019-01-16T00:23:26.000Z,27.5
2019-01-16T00:24:41.000Z,27.4
2019-01-16T00:25:41.000Z,27.4
2019-01-16T00:27:41.000Z,27.4
2019-01-16T00:28:41.000Z,27.5
2019-01-16T00:30:41.000Z,27.4
2019-01-16T00:31:41.000Z,27.4
2019-01-16T00:32:41.000Z,27.5
2019-01-16T00:34:41.000Z,27.5
2019-01-16T00:35:41.000Z,27.5
2019-01-16T00:36:41.000Z,27.6
2019-01-16T00:38:41.000Z,27.6
2019-01-16T00:40:41.000Z,27.6
2019-01-16T00:42:41.000Z,27.5
2019-01-16T00:44:41.000Z,27.4
2019-01-16T00:46:41.000Z,27.3
2019-01-16T00:48:41.000Z,27.3
2019-01-16T00:49:41.000Z,27.3
2019-01-16T00:51:41.000Z,27.4
2019-01-16T00:52:41.000Z,27.4
2019-01-16T00:53:41.000Z,27.4
2019-01-16T00:54:41.000Z,27.4
2019-01-16T00:55:41.000Z,27.5
2019-01-16T00:57:41.000Z,27.5
2019-01-16T00:59:26.000Z,27.4
2019-01-16T01:00:41.000Z,27.3
2019-01-16T01:01:41.000Z,27.3
2019-01-16T01:02:41.000Z,27.3
2019-01-16T01:04:41.000Z,27.3
2019-01-16T01:06:41.000Z,27.4
2019-01-16T01:07:41.000Z,27.4
2019-01-16T01:09:41.000Z,27.4
2019-01-16T01:10:41.000Z,27.4
2019-01-16T01:12:41.000Z,27.4
2019-01-16T01:13:41.000Z,27.4
2019-01-16T01:15:41.000Z,27.5
2019-01-16T01:17:41.000Z,27.4
2019-01-16T01:19:41.000Z,27.3
2019-01-16T01:20:41.000Z,27.3
2019-01-16T01:21:41.000Z,27.3
2019-01-16T01:22:41.000Z,27.4
2019-01-16T01:23:41.000Z,27.4
2019-01-16T01:25:41.000Z,27.5
2019-01-16T01:27:41.000Z,27.4
2019-01-16T01:29:41.000Z,27.4
2019-01-16T01:31:41.000Z,27.3
2019-01-16T01:33:41.000Z,27.3
2019-01-16T01:34:41.000Z,27.3
2019-01-16T01:35:41.000Z,27.4
2019-01-16T01:37:41.000Z,27.5
2019-01-16T01:39:41.000Z,27.4
2019-01-16T01:41:41.000Z,27.4
2019-01-16T01:43:41.000Z,27.3
2019-01-16T01:44:41.000Z,27.3
2019-01-16T01:46:41.000Z,27.4
2019-01-16T01:47:41.000Z,27.4
2019-01-16T01:49:41.000Z,27.4
2019-01-16T01:51:41.000Z,27.3
2019-01-16T01:52:41.000Z,27.3
2019-01-16T01:53:41.000Z,27.3
2019-01-16T01:55:41.000Z,27.4
2019-01-16T01:56:41.000Z,27.4
2019-01-16T01:58:41.000Z,27.5
2019-01-16T01:59:41.000Z,27.5
2019-01-16T02:00:41.000Z,27.5
2019-01-16T02:01:41.000Z,27.5
2019-01-16T02:03:41.000Z,27.5
2019-01-16T02:05:41.000Z,27.5
2019-01-16T02:07:41.000Z,27.4
2019-01-16T02:09:41.000Z,27.3
2019-01-16T02:11:41.000Z,27.2
2019-01-16T02:13:41.000Z,27.2
2019-01-16T02:15:41.000Z,27.2
2019-01-16T02:17:41.000Z,27.1
2019-01-16T02:19:41.000Z,27
2019-01-16T02:20:41.000Z,27
2019-01-16T02:22:41.000Z,27
2019-01-16T02:23:41.000Z,27
2019-01-16T02:25:41.000Z,27
2019-01-16T02:26:41.000Z,27
2019-01-16T02:28:41.000Z,27.1
2019-01-16T02:30:41.000Z,27
2019-01-16T02:32:41.000Z,27
2019-01-16T02:33:41.000Z,27.1
2019-01-16T02:35:41.000Z,27.2
2019-01-16T02:37:41.000Z,27.2
2019-01-16T02:38:41.000Z,27.2
2019-01-16T02:40:41.000Z,27.2
2019-01-16T02:42:41.000Z,27.2
2019-01-16T02:43:41.000Z,27.2
2019-01-16T02:44:41.000Z,27.3
2019-01-16T02:45:41.000Z,27.4
2019-01-16T02:47:41.000Z,27.4
2019-01-16T02:49:41.000Z,27.4
2019-01-16T02:51:41.000Z,27.4
2019-01-16T02:52:41.000Z,27.4
2019-01-16T02:54:41.000Z,27.4
2019-01-16T02:55:41.000Z,27.4
2019-01-16T02:57:26.000Z,27.3
2019-01-16T02:58:41.000Z,27.3
2019-01-16T02:59:41.000Z,27.3
2019-01-16T03:01:41.000Z,27.3
2019-01-16T03:02:41.000Z,27.3
2019-01-16T03:03:41.000Z,27.3
2019-01-16T03:05:26.000Z,27.3
2019-01-16T03:06:41.000Z,27.3
2019-01-16T03:07:41.000Z,27.3
2019-01-16T03:08:41.000Z,27.4
2019-01-16T03:10:41.000Z,27.4
2019-01-16T03:12:41.000Z,27.4
2019-01-16T03:14:41.000Z,27.3
2019-01-16T03:15:41.000Z,27.3
2019-01-16T03:17:41.000Z,27.3
2019-01-16T03:18:41.000Z,27.3
2019-01-16T03:20:41.000Z,27.2
2019-01-16T03:21:41.000Z,27.2
2019-01-16T03:23:41.000Z,27.2
2019-01-16T03:24:41.000Z,27.2
2019-01-16T03:26:41.000Z,27.3
2019-01-16T03:27:41.000Z,27.3
2019-01-16T03:29:41.000Z,27.3
2019-01-16T03:30:41.000Z,27.3
2019-01-16T03:31:41.000Z,27.4
2019-01-16T03:33:26.000Z,27.4
2019-01-16T03:35:41.000Z,27.3
2019-01-16T03:36:41.000Z,27.2
2019-01-16T03:38:41.000Z,27.2
2019-01-16T03:40:41.000Z,27.2
2019-01-16T03:41:41.000Z,27.2
2019-01-16T03:43:26.000Z,27.2
2019-01-16T03:44:41.000Z,27.2
2019-01-16T03:46:41.000Z,27.2
2019-01-16T03:47:41.000Z,27.2
2019-01-16T03:49:41.000Z,27.2
2019-01-16T03:50:41.000Z,27.2
2019-01-16T03:52:41.000Z,27.2
2019-01-16T03:54:41.000Z,27.1
2019-01-16T03:55:41.000Z,27.1
2019-01-16T03:57:41.000Z,27
2019-01-16T03:59:41.000Z,27
2019-01-16T04:00:41.000Z,27
2019-01-16T04:02:41.000Z,27.1
2019-01-16T04:03:41.000Z,27.1
2019-01-16T04:05:41.000Z,27.2
2019-01-16T04:06:41.000Z,27.2
2019-01-16T04:08:41.000Z,27.2
2019-01-16T04:09:41.000Z,27.3
2019-01-16T04:10:41.000Z,27.3
2019-01-16T04:11:41.000Z,27.4
2019-01-16T04:13:26.000Z,27.4
2019-01-16T04:14:41.000Z,27.4
2019-01-16T04:16:41.000Z,27.3
2019-01-16T04:17:41.000Z,27.3
2019-01-16T04:18:41.000Z,27.3
2019-01-16T04:20:26.000Z,27.3
2019-01-16T04:21:41.000Z,27.3
2019-01-16T04:23:41.000Z,27.2
2019-01-16T04:24:41.000Z,27.2
2019-01-16T04:25:41.000Z,27.3
2019-01-16T04:27:41.000Z,27.3
2019-01-16T04:29:41.000Z,27.2
2019-01-16T04:31:41.000Z,27.2
2019-01-16T04:33:41.000Z,27.1
2019-01-16T04:35:41.000Z,27.1
2019-01-16T04:37:41.000Z,27.1
2019-01-16T04:38:41.000Z,27.1
2019-01-16T04:40:41.000Z,27.1
2019-01-16T04:42:42.000Z,27
2019-01-16T04:44:42.000Z,26.9
2019-01-16T04:46:42.000Z,26.9
2019-01-16T04:48:42.000Z,27
2019-01-16T04:50:42.000Z,26.9
2019-01-16T04:52:42.000Z,26.8
2019-01-16T04:53:42.000Z,26.8
2019-01-16T04:54:42.000Z,26.9
2019-01-16T04:56:42.000Z,27
2019-01-16T04:57:42.000Z,27.1
2019-01-16T04:59:42.000Z,27.1
2019-01-16T05:00:42.000Z,27.1
2019-01-16T05:02:42.000Z,27.2
2019-01-16T05:03:42.000Z,27.2
2019-01-16T05:05:42.000Z,27.2
2019-01-16T05:06:42.000Z,27.2
2019-01-16T05:07:42.000Z,27.2
2019-01-16T05:09:42.000Z,27.2
2019-01-16T05:11:42.000Z,27.1
2019-01-16T05:12:42.000Z,27.1
2019-01-16T05:13:42.000Z,27.2
2019-01-16T05:15:42.000Z,27.1
2019-01-16T05:17:42.000Z,27.1
2019-01-16T05:18:42.000Z,27.1
2019-01-16T05:19:42.000Z,27.2
2019-01-16T05:21:42.000Z,27.2
2019-01-16T05:22:42.000Z,27.2
2019-01-16T05:23:42.000Z,27.2
2019-01-16T05:25:42.000Z,27.1
2019-01-16T05:27:42.000Z,27
2019-01-16T05:28:42.000Z,26.9
2019-01-16T05:29:42.000Z,27
2019-01-16T05:31:42.000Z,27
2019-01-16T05:32:42.000Z,27
2019-01-16T05:33:42.000Z,27.1
2019-01-16T05:35:42.000Z,27.1
2019-01-16T05:36:42.000Z,27.1
2019-01-16T05:38:42.000Z,27
2019-01-16T05:40:42.000Z,26.9
2019-01-16T05:42:42.000Z,26.9
2019-01-16T05:43:42.000Z,26.9
2019-01-16T05:44:42.000Z,27
2019-01-16T05:46:41.000Z,27
2019-01-16T05:48:41.000Z,27.1
2019-01-16T05:50:26.000Z,27.1
2019-01-16T05:51:41.000Z,27.1
2019-01-16T05:53:41.000Z,27.1
2019-01-16T05:55:26.000Z,27.1
2019-01-16T05:56:41.000Z,27.1
2019-01-16T05:57:41.000Z,27.1
2019-01-16T05:59:26.000Z,27.3
2019-01-16T06:00:41.000Z,27.3
2019-01-16T06:01:41.000Z,27.3
2019-01-16T06:03:41.000Z,27.4
2019-01-16T06:05:41.000Z,27.4
2019-01-16T06:07:41.000Z,27.3
2019-01-16T06:08:41.000Z,27.3
2019-01-16T06:09:41.000Z,27.4
2019-01-16T06:11:41.000Z,27.5
2019-01-16T06:12:41.000Z,27.5
2019-01-16T06:14:41.000Z,27.6
2019-01-16T06:15:41.000Z,27.6
2019-01-16T06:16:41.000Z,27.7
2019-01-16T06:17:41.000Z,27.7
2019-01-16T06:19:41.000Z,27.7
2019-01-16T06:21:41.000Z,27.7
2019-01-16T06:23:41.000Z,27.7
2019-01-16T06:25:41.000Z,27.7
2019-01-16T06:27:41.000Z,27.7
2019-01-16T06:28:41.000Z,27.7
2019-01-16T06:30:41.000Z,27.7
2019-01-16T06:31:41.000Z,27.8
2019-01-16T06:33:26.000Z,27.8
2019-01-16T06:34:41.000Z,27.8
2019-01-16T06:36:41.000Z,27.9
2019-01-16T06:37:41.000Z,27.9
2019-01-16T06:38:41.000Z,27.9
2019-01-16T06:40:41.000Z,27.9
2019-01-16T06:41:41.000Z,28
2019-01-16T06:42:41.000Z,28
2019-01-16T06:44:41.000Z,28
2019-01-16T06:45:41.000Z,28
2019-01-16T06:46:41.000Z,28.1
2019-01-16T06:48:41.000Z,28.1
2019-01-16T06:49:41.000Z,28.1
2019-01-16T06:51:41.000Z,28.1
2019-01-16T06:52:41.000Z,28
2019-01-16T06:53:41.000Z,28.1
2019-01-16T06:55:41.000Z,28.1
2019-01-16T06:57:41.000Z,27.9
2019-01-16T06:58:41.000Z,27.7
2019-01-16T06:59:41.000Z,27.4
2019-01-16T07:01:41.000Z,26.8
2019-01-16T07:03:41.000Z,26.3
2019-01-16T07:05:26.000Z,25.9
2019-01-16T07:06:41.000Z,25.6
2019-01-16T07:08:41.000Z,25.2
2019-01-16T07:10:41.000Z,24.8
2019-01-16T07:12:41.000Z,24.5
2019-01-16T07:13:41.000Z,24.4
2019-01-16T07:15:41.000Z,24.2
2019-01-16T07:16:41.000Z,24.1
2019-01-16T07:18:41.000Z,23.9
2019-01-16T07:19:41.000Z,23.9
2019-01-16T07:21:41.000Z,23.8
2019-01-16T07:23:41.000Z,23.6
2019-01-16T07:24:41.000Z,23.5
2019-01-16T07:26:41.000Z,23.5
2019-01-16T07:27:41.000Z,23.4
2019-01-16T07:28:41.000Z,23.4
2019-01-16T07:30:41.000Z,23.4
2019-01-16T07:31:41.000Z,23.4
2019-01-16T07:32:41.000Z,23.3
2019-01-16T07:34:41.000Z,23.2
2019-01-16T07:35:41.000Z,23.2
2019-01-16T07:37:41.000Z,23.2
2019-01-16T07:39:41.000Z,23
2019-01-16T07:40:41.000Z,22.9
2019-01-16T07:42:41.000Z,22.8
2019-01-16T07:44:41.000Z,22.6
2019-01-16T07:45:41.000Z,22.5
2019-01-16T07:47:41.000Z,22.4
2019-01-16T07:48:41.000Z,22.4
2019-01-16T07:49:41.000Z,22.4
2019-01-16T07:50:41.000Z,22.5
2019-01-16T07:52:42.000Z,22.5
2019-01-16T07:54:42.000Z,22.4
2019-01-16T07:55:42.000Z,22.3
2019-01-16T07:56:42.000Z,22.3
2019-01-16T07:58:42.000Z,22.2
2019-01-16T08:00:42.000Z,22.1
2019-01-16T08:02:42.000Z,22
2019-01-16T08:04:42.000Z,21.9
2019-01-16T08:06:42.000Z,22
2019-01-16T08:07:42.000Z,22.2
2019-01-16T08:09:42.000Z,22.6
2019-01-16T08:10:42.000Z,22.7
2019-01-16T08:12:42.000Z,23
2019-01-16T08:14:42.000Z,23.3
2019-01-16T08:15:42.000Z,23.4
2019-01-16T08:16:42.000Z,23.6
2019-01-16T08:18:42.000Z,24
2019-01-16T08:19:42.000Z,24.1
2019-01-16T08:20:42.000Z,24.3
2019-01-16T08:22:42.000Z,24.5
2019-01-16T08:24:42.000Z,24.7
2019-01-16T08:26:42.000Z,24.8
2019-01-16T08:27:42.000Z,24.9
2019-01-16T08:28:42.000Z,25
2019-01-16T08:29:42.000Z,25.2
2019-01-16T08:31:42.000Z,25.3
2019-01-16T08:32:42.000Z,25.4
2019-01-16T08:34:42.000Z,25.5
2019-01-16T08:35:42.000Z,25.6
2019-01-16T08:37:42.000Z,25.7
2019-01-16T08:39:42.000Z,25.7
2019-01-16T08:40:42.000Z,25.8
2019-01-16T08:41:42.000Z,25.9
2019-01-16T08:43:42.000Z,26.1
2019-01-16T08:44:42.000Z,26.1
2019-01-16T08:45:42.000Z,26.2
2019-01-16T08:47:42.000Z,26.4
2019-01-16T08:48:42.000Z,26.4
2019-01-16T08:50:27.000Z,26.5
2019-01-16T08:51:42.000Z,26.4
2019-01-16T08:52:42.000Z,26.4
2019-01-16T08:53:42.000Z,26.5
2019-01-16T08:54:42.000Z,26.6
2019-01-16T08:56:41.000Z,26.7
2019-01-16T08:57:41.000Z,26.7
2019-01-16T08:58:41.000Z,26.8
2019-01-16T09:00:41.000Z,27
2019-01-16T09:02:41.000Z,26.9
2019-01-16T09:03:41.000Z,26.9
2019-01-16T09:05:41.000Z,27
2019-01-16T09:07:41.000Z,27
2019-01-16T09:09:26.000Z,27
2019-01-16T09:10:41.000Z,27
2019-01-16T09:11:41.000Z,27.1
2019-01-16T09:13:41.000Z,27.1
2019-01-16T09:15:26.000Z,27.1
2019-01-16T09:16:41.000Z,27
2019-01-16T09:17:41.000Z,27
2019-01-16T09:19:41.000Z,27.1
2019-01-16T09:21:41.000Z,27.1
2019-01-16T09:23:41.000Z,27.2
2019-01-16T09:25:41.000Z,27.3
2019-01-16T09:26:41.000Z,27.3
2019-01-16T09:28:26.000Z,27.5
2019-01-16T09:29:41.000Z,27.6
2019-01-16T09:31:41.000Z,27.6
2019-01-16T09:32:41.000Z,27.7
2019-01-16T09:34:41.000Z,27.8
2019-01-16T09:35:41.000Z,27.9
2019-01-16T09:37:41.000Z,28
2019-01-16T09:39:41.000Z,28
2019-01-16T09:40:41.000Z,28
2019-01-16T09:41:41.000Z,28
2019-01-16T09:43:26.000Z,28.1
2019-01-16T09:44:41.000Z,28.1
2019-01-16T09:46:41.000Z,28.1
2019-01-16T09:48:26.000Z,28
2019-01-16T09:49:41.000Z,28
2019-01-16T09:51:41.000Z,28
2019-01-16T09:53:41.000Z,28.1
2019-01-16T09:54:41.000Z,28.1
2019-01-16T09:56:41.000Z,28.1
2019-01-16T09:58:41.000Z,28.1
2019-01-16T10:00:41.000Z,28.1
2019-01-16T10:01:41.000Z,28.2
2019-01-16T10:03:41.000Z,28.3
2019-01-16T10:05:41.000Z,28.4
2019-01-16T10:07:41.000Z,28.5
2019-01-16T10:08:41.000Z,28.5
2019-01-16T10:09:41.000Z,28.6
2019-01-16T10:11:26.000Z,28.7
2019-01-16T10:12:41.000Z,28.6
2019-01-16T10:13:41.000Z,28.7
2019-01-16T10:14:41.000Z,28.7
2019-01-16T10:16:41.000Z,28.8
2019-01-16T10:18:41.000Z,28.7
2019-01-16T10:19:41.000Z,28.8
2019-01-16T10:21:26.000Z,28.9
2019-01-16T10:22:41.000Z,28.9
2019-01-16T10:23:41.000Z,28.9
2019-01-16T10:25:41.000Z,29
2019-01-16T10:26:41.000Z,29
2019-01-16T10:28:41.000Z,29
2019-01-16T10:29:41.000Z,29
2019-01-16T10:31:41.000Z,29.1
2019-01-16T10:32:41.000Z,29.1
2019-01-16T10:33:41.000Z,29.1
2019-01-16T10:35:41.000Z,29.2
2019-01-16T10:36:41.000Z,29.3
2019-01-16T10:37:41.000Z,29.3
2019-01-16T10:38:41.000Z,29.3
2019-01-16T10:40:41.000Z,29.4
2019-01-16T10:41:41.000Z,29.5
2019-01-16T10:43:41.000Z,29.5
2019-01-16T10:45:41.000Z,29.5
2019-01-16T10:46:41.000Z,29.4
2019-01-16T10:48:41.000Z,29.4
2019-01-16T10:50:41.000Z,29.3
2019-01-16T10:52:41.000Z,29.2
2019-01-16T10:53:41.000Z,29.2
2019-01-16T10:55:26.000Z,29.3
2019-01-16T10:56:41.000Z,29.3
2019-01-16T10:58:41.000Z,29.3
2019-01-16T11:00:41.000Z,29.2
2019-01-16T11:01:41.000Z,29.2
2019-01-16T11:03:41.000Z,29.2
2019-01-16T11:05:41.000Z,29.2
2019-01-16T11:07:41.000Z,29.2
2019-01-16T11:09:41.000Z,29.2
2019-01-16T11:11:41.000Z,29.2
2019-01-16T11:12:41.000Z,29.3
2019-01-16T11:14:41.000Z,29.3
2019-01-16T11:15:41.000Z,29.3
2019-01-16T11:17:41.000Z,29.4
2019-01-16T11:19:41.000Z,29.5
2019-01-16T11:21:26.000Z,29.5
2019-01-16T11:22:41.000Z,29.5
2019-01-16T11:24:41.000Z,29.4
2019-01-16T11:25:41.000Z,29.4
2019-01-16T11:27:41.000Z,29.5
2019-01-16T11:29:41.000Z,29.5
2019-01-16T11:31:41.000Z,29.5
2019-01-16T11:32:41.000Z,29.4
2019-01-16T11:34:41.000Z,29.5
2019-01-16T11:35:41.000Z,29.6
2019-01-16T11:37:41.000Z,29.7
2019-01-16T11:39:41.000Z,29.7
2019-01-16T11:41:41.000Z,29.6
2019-01-16T11:43:26.000Z,29.6
2019-01-16T11:44:41.000Z,29.6
2019-01-16T11:46:41.000Z,29.7
2019-01-16T11:47:41.000Z,29.8
2019-01-16T11:49:41.000Z,29.8
2019-01-16T11:50:41.000Z,29.9
2019-01-16T11:52:41.000Z,29.8
2019-01-16T12:02:25.000Z,28.6
2019-01-16T12:04:10.000Z,28.7
2019-01-16T12:05:25.000Z,28.9
2019-01-16T12:07:25.000Z,29
2019-01-16T12:08:26.000Z,29.1
2019-01-16T12:10:11.000Z,29.3
2019-01-16T12:11:26.000Z,29.3
2019-01-16T12:12:26.000Z,29.4
2019-01-16T12:14:26.000Z,29.5
2019-01-16T12:15:26.000Z,29.5
2019-01-16T12:16:26.000Z,29.6
2019-01-16T12:18:26.000Z,29.7
2019-01-16T12:19:26.000Z,29.8
2019-01-16T12:20:26.000Z,29.8
2019-01-16T12:22:26.000Z,29.9
2019-01-16T12:23:26.000Z,29.9
2019-01-16T12:25:26.000Z,29.9
2019-01-16T12:26:26.000Z,29.8
2019-01-16T12:28:26.000Z,29.2
2019-01-16T12:29:26.000Z,28.9
2019-01-16T12:31:26.000Z,28.3
2019-01-16T12:32:26.000Z,28.1
2019-01-16T12:34:11.000Z,27.4
2019-01-16T12:35:26.000Z,27.3
2019-01-16T12:36:26.000Z,27
2019-01-16T12:38:26.000Z,26.7
2019-01-16T12:40:26.000Z,26.4
2019-01-16T12:41:26.000Z,26.2
2019-01-16T12:42:26.000Z,26
2019-01-16T12:43:26.000Z,26
2019-01-16T12:45:26.000Z,25.8
2019-01-16T12:46:26.000Z,25.7
2019-01-16T12:48:26.000Z,25.5
2019-01-16T12:49:26.000Z,25.4
2019-01-16T12:50:26.000Z,25.4
2019-01-16T12:52:26.000Z,25.1
2019-01-16T12:54:26.000Z,24.7
2019-01-16T13:30:41.000Z,21.8
2019-01-16T13:32:55.000Z,22.1
2019-01-16T13:33:55.000Z,22.4
2019-01-16T13:34:55.000Z,22.7
2019-01-16T13:36:55.000Z,23.3
2019-01-16T13:38:55.000Z,23.7
2019-01-16T13:40:55.000Z,24.1
2019-01-16T13:42:55.000Z,24.4
2019-01-16T13:44:40.000Z,24.7
2019-01-16T13:45:55.000Z,24.9
2019-01-16T13:47:55.000Z,25.1
2019-01-16T13:49:55.000Z,25.4
2019-01-16T13:50:55.000Z,25.5
2019-01-16T13:52:40.000Z,25.7
2019-01-16T13:53:55.000Z,25.8
2019-01-16T13:54:55.000Z,25.9
2019-01-16T13:55:55.000Z,26
2019-01-16T13:56:55.000Z,26.2
2019-01-16T13:57:55.000Z,26.4
2019-01-16T13:59:55.000Z,26.6
2019-01-16T14:00:55.000Z,26.7
2019-01-16T14:01:55.000Z,26.8
2019-01-16T14:03:55.000Z,26.9
2019-01-16T14:05:55.000Z,26.9
2019-01-16T14:07:55.000Z,26.9
2019-01-16T14:46:33.000Z,25.4
2019-01-16T14:47:33.000Z,25.6
2019-01-16T14:49:33.000Z,25.9
2019-01-16T14:50:33.000Z,26.1
2019-01-16T14:51:33.000Z,26.3
2019-01-16T14:53:33.000Z,26.6
2019-01-16T14:55:33.000Z,26.8
2019-01-16T14:56:33.000Z,26.9
2019-01-16T14:57:33.000Z,27
2019-01-16T14:59:33.000Z,27.1
2019-01-16T15:36:33.000Z,25.6
2019-01-16T15:38:19.000Z,25.8
2019-01-16T15:39:19.000Z,26
2019-01-16T15:40:19.000Z,26.2
2019-01-16T15:42:19.000Z,26.6
2019-01-16T15:43:19.000Z,26.8
2019-01-16T15:45:19.000Z,27.1
2019-01-16T15:47:19.000Z,27.2
2019-01-16T15:49:19.000Z,27.3
2019-01-16T15:50:19.000Z,27.4
2019-01-16T15:52:19.000Z,27.4
2019-01-16T15:53:19.000Z,27.5
2019-01-16T15:55:19.000Z,27.6
2019-01-16T15:56:19.000Z,27.6
2019-01-16T15:57:19.000Z,27.7
2019-01-16T15:59:19.000Z,27.8
2019-01-16T16:01:19.000Z,27.8
2019-01-16T16:02:19.000Z,27.8
2019-01-16T16:03:19.000Z,27.8
2019-01-16T16:05:19.000Z,27.8
2019-01-16T16:07:19.000Z,27.7
2019-01-16T16:08:19.000Z,27.7
2019-01-16T16:10:19.000Z,27.7
2019-01-16T16:11:19.000Z,27.7
2019-01-16T16:13:19.000Z,27.7
2019-01-16T16:15:19.000Z,27.7
2019-01-16T16:17:20.000Z,27.6
2019-01-16T16:22:35.000Z,27
2019-01-16T16:24:21.000Z,26.9
2019-01-16T16:25:21.000Z,26.9
2019-01-16T16:27:21.000Z,27
2019-01-16T16:29:21.000Z,27.1
2019-01-16T16:30:21.000Z,27.2
2019-01-16T16:32:06.000Z,27.4
2019-01-16T16:33:21.000Z,27.4
2019-01-16T16:34:21.000Z,27.4
2019-01-16T16:35:21.000Z,27.5
2019-01-16T16:37:21.000Z,27.6
2019-01-16T16:39:06.000Z,27.6
2019-01-16T16:40:21.000Z,27.5
2019-01-16T16:42:21.000Z,27.5
2019-01-16T16:44:21.000Z,27.5
2019-01-16T16:45:21.000Z,27.5
2019-01-16T16:47:21.000Z,27.6
2019-01-16T16:48:21.000Z,27.6
2019-01-16T16:50:21.000Z,27.6
2019-01-16T16:52:21.000Z,27.6
2019-01-16T16:54:21.000Z,27.5
2019-01-16T16:56:21.000Z,27.4
2019-01-16T16:58:21.000Z,27.4
2019-01-16T16:59:21.000Z,27.4
2019-01-16T17:01:06.000Z,27.4
2019-01-16T17:02:21.000Z,27.4
2019-01-16T17:03:21.000Z,27.4
2019-01-16T17:04:21.000Z,27.5
2019-01-16T17:06:21.000Z,27.5
2019-01-16T17:07:21.000Z,27.5
2019-01-16T17:09:21.000Z,27.6
2019-01-16T17:10:21.000Z,27.6
2019-01-16T17:11:21.000Z,27.7
2019-01-16T17:13:21.000Z,27.7
2019-01-16T17:15:21.000Z,27.7
2019-01-16T17:17:21.000Z,27.6
2019-01-16T17:18:21.000Z,27.6
2019-01-16T17:20:21.000Z,27.6
2019-01-16T17:22:21.000Z,27.5
2019-01-16T17:24:21.000Z,27.4
2019-01-16T17:26:21.000Z,27.3
2019-01-16T17:27:21.000Z,27.3
2019-01-16T17:28:21.000Z,27.3
2019-01-16T17:30:21.000Z,27.3
2019-01-16T17:32:21.000Z,27.3
2019-01-16T17:34:06.000Z,27.3
2019-01-16T17:36:21.000Z,27.2
2019-01-16T17:38:21.000Z,27.2
2019-01-16T17:40:21.000Z,27.2
2019-01-16T17:41:21.000Z,27.3
2019-01-16T17:43:21.000Z,27.4
2019-01-16T17:45:21.000Z,27.3
2019-01-16T17:46:21.000Z,27.3
2019-01-16T17:48:21.000Z,27.4
2019-01-16T17:50:06.000Z,27.4
2019-01-16T17:51:21.000Z,27.4
2019-01-16T17:57:06.000Z,26.9
2019-01-16T18:09:59.000Z,25.7
2019-01-16T18:11:59.000Z,25.9
2019-01-16T18:12:59.000Z,26.1
2019-01-16T18:14:59.000Z,26.4
2019-01-16T18:15:59.000Z,26.5
2019-01-16T18:17:59.000Z,26.7
2019-01-16T18:19:59.000Z,26.9
2019-01-16T18:20:59.000Z,26.9
2019-01-16T18:22:44.000Z,26.9
2019-01-16T18:23:59.000Z,26.9
2019-01-16T18:24:59.000Z,26.9
2019-01-16T18:26:44.000Z,27
2019-01-16T18:27:59.000Z,26.9
2019-01-16T18:28:59.000Z,26.9
2019-01-16T18:29:59.000Z,27
2019-01-16T18:31:59.000Z,27.1
2019-01-16T18:33:59.000Z,27.1
2019-01-16T18:35:59.000Z,27.1
2019-01-16T18:37:59.000Z,27.2
2019-01-16T18:38:59.000Z,27.2
2019-01-16T18:40:59.000Z,27.3
2019-01-16T18:41:59.000Z,27.4
2019-01-16T18:43:59.000Z,27.4
2019-01-16T18:45:59.000Z,27.3
2019-01-16T18:46:59.000Z,27.3
2019-01-16T18:48:59.000Z,27.3
2019-01-16T18:50:59.000Z,27.2
2019-01-16T18:52:59.000Z,27.2
2019-01-16T18:54:59.000Z,27.2
2019-01-16T18:56:59.000Z,27.2
2019-01-16T18:58:59.000Z,27.2
2019-01-16T18:59:59.000Z,27.2
2019-01-16T19:01:59.000Z,27.2
2019-01-16T19:02:59.000Z,27.3
2019-01-16T19:04:59.000Z,27.4
2019-01-16T19:06:59.000Z,27.3
2019-01-16T19:07:59.000Z,27.3
2019-01-16T19:09:59.000Z,27.4
2019-01-16T19:11:44.000Z,27.4
2019-01-16T19:12:59.000Z,27.3
2019-01-16T19:13:59.000Z,27.3
2019-01-16T19:15:59.000Z,27.4
2019-01-16T19:17:59.000Z,27.4
2019-01-16T19:19:59.000Z,27.3
2019-01-16T19:20:59.000Z,27.3
2019-01-16T19:21:59.000Z,27.3
2019-01-16T19:23:44.000Z,27.4
2019-01-16T19:24:59.000Z,27.4
2019-01-16T19:26:59.000Z,27.4
2019-01-16T19:27:59.000Z,27.4
2019-01-16T19:29:59.000Z,27.4
2019-01-16T19:31:44.000Z,27.4
2019-01-16T19:32:59.000Z,27.2
2019-01-16T19:33:59.000Z,27.2
2019-01-16T19:34:59.000Z,27.2
2019-01-16T19:36:59.000Z,27.2
2019-01-16T19:38:44.000Z,27.3
2019-01-16T19:39:59.000Z,27.3
2019-01-16T19:40:59.000Z,27.3
2019-01-16T19:41:59.000Z,27.3
2019-01-16T19:43:59.000Z,27.4
2019-01-16T19:45:59.000Z,27.4
2019-01-16T19:46:59.000Z,27.5
2019-01-16T19:48:59.000Z,27.5
2019-01-16T19:49:59.000Z,27.5
2019-01-16T19:51:59.000Z,27.5
2019-01-16T19:53:59.000Z,27.5
2019-01-16T19:54:59.000Z,27.5
2019-01-16T19:56:59.000Z,27.4
2019-01-16T19:58:59.000Z,27.3
2019-01-16T20:00:44.000Z,27.3
2019-01-16T20:01:59.000Z,27.3
2019-01-16T20:02:59.000Z,27.3
2019-01-16T20:04:59.000Z,27.3
2019-01-16T20:05:59.000Z,27.3
2019-01-16T20:06:59.000Z,27.3
2019-01-16T20:07:59.000Z,27.4
2019-01-16T20:08:59.000Z,27.4
2019-01-16T20:10:59.000Z,27.4
2019-01-16T20:12:59.000Z,27.4
2019-01-16T20:14:59.000Z,27.2
2019-01-16T20:15:59.000Z,27.2
2019-01-16T20:17:59.000Z,27.3
2019-01-16T20:19:59.000Z,27.3
2019-01-16T20:20:59.000Z,27.3
2019-01-16T20:22:59.000Z,27.3
2019-01-16T20:23:59.000Z,27.3
2019-01-16T20:25:59.000Z,27.3
2019-01-16T20:27:59.000Z,27.2
2019-01-16T20:28:59.000Z,27.2
2019-01-16T20:30:59.000Z,27.3
2019-01-16T20:32:59.000Z,27.3
2019-01-16T20:33:59.000Z,27.3
2019-01-16T20:35:59.000Z,27.3
2019-01-16T20:36:59.000Z,27.3
2019-01-16T20:38:59.000Z,27.4
2019-01-16T20:40:59.000Z,27.3
2019-01-16T20:42:59.000Z,27.2
2019-01-16T20:44:59.000Z,27.2
2019-01-16T20:46:43.000Z,27.1
2019-01-16T20:47:59.000Z,27
2019-01-16T20:49:59.000Z,26.9
2019-01-16T20:51:59.000Z,26.9
2019-01-16T20:53:59.000Z,26.9
2019-01-16T20:54:59.000Z,27
2019-01-16T20:56:43.000Z,26.9
2019-01-16T20:57:59.000Z,26.9
2019-01-16T20:58:59.000Z,26.9
2019-01-16T21:00:59.000Z,27
2019-01-16T21:01:59.000Z,27
2019-01-16T21:03:59.000Z,27.1
2019-01-16T21:04:59.000Z,27.1
2019-01-16T21:06:59.000Z,27.1
2019-01-16T21:08:59.000Z,27
2019-01-16T21:09:59.000Z,27
2019-01-16T21:11:59.000Z,27
2019-01-16T21:13:43.000Z,27
2019-01-16T21:14:59.000Z,27
2019-01-16T21:16:44.000Z,27
2019-01-16T21:17:59.000Z,26.8
2019-01-16T21:18:59.000Z,26.8
2019-01-16T21:20:59.000Z,26.8
2019-01-16T21:21:59.000Z,26.9
2019-01-16T21:23:59.000Z,26.9
2019-01-16T21:24:59.000Z,26.9
2019-01-16T21:26:59.000Z,26.9
2019-01-16T21:28:59.000Z,26.8
2019-01-16T21:30:59.000Z,26.7
2019-01-16T21:31:59.000Z,26.8
2019-01-16T21:33:59.000Z,26.8
2019-01-16T21:35:59.000Z,26.9
2019-01-16T21:36:59.000Z,27
2019-01-16T21:37:59.000Z,27
2019-01-16T21:39:59.000Z,27
2019-01-16T21:40:59.000Z,27
2019-01-16T21:41:59.000Z,27.1
2019-01-16T21:43:59.000Z,27.1
2019-01-16T21:44:59.000Z,27.1
2019-01-16T21:46:59.000Z,27.1
2019-01-16T21:48:44.000Z,27.1
2019-01-16T21:49:59.000Z,27
2019-01-16T21:50:59.000Z,27
2019-01-16T21:52:59.000Z,27
2019-01-16T21:53:59.000Z,27
2019-01-16T21:55:59.000Z,27
2019-01-16T21:57:59.000Z,27
2019-01-16T21:58:59.000Z,27
2019-01-16T21:59:59.000Z,27
2019-01-16T22:01:59.000Z,27
2019-01-16T22:03:59.000Z,27
2019-01-16T22:05:59.000Z,27
2019-01-16T22:06:59.000Z,27
2019-01-16T22:08:59.000Z,27
2019-01-16T22:10:59.000Z,26.9
2019-01-16T22:11:59.000Z,26.9
2019-01-16T22:12:59.000Z,27
2019-01-16T22:14:44.000Z,27.1
2019-01-16T22:15:59.000Z,27
2019-01-16T22:17:59.000Z,26.9
2019-01-16T22:18:59.000Z,26.9
2019-01-16T22:20:59.000Z,26.9
2019-01-16T22:21:59.000Z,27
2019-01-16T22:22:59.000Z,27
2019-01-16T22:23:59.000Z,27.1
2019-01-16T22:25:59.000Z,27.1
2019-01-16T22:27:59.000Z,27.1
2019-01-16T22:29:59.000Z,27.1
2019-01-16T22:30:59.000Z,27
2019-01-16T22:32:59.000Z,27
2019-01-16T22:34:59.000Z,27
2019-01-16T22:36:59.000Z,26.9
2019-01-16T22:38:59.000Z,26.8
2019-01-16T22:40:59.000Z,26.8
2019-01-16T22:41:59.000Z,26.8
2019-01-16T22:42:59.000Z,26.9
2019-01-16T22:43:59.000Z,26.9
2019-01-16T22:45:59.000Z,27
2019-01-16T22:46:59.000Z,27
2019-01-16T22:47:59.000Z,27
2019-01-16T22:49:59.000Z,27.1
2019-01-16T22:51:59.000Z,27
2019-01-16T22:53:59.000Z,27
2019-01-16T22:55:59.000Z,26.9
2019-01-16T22:57:59.000Z,26.9
2019-01-16T22:58:59.000Z,26.9
2019-01-16T23:00:59.000Z,27
2019-01-16T23:01:59.000Z,27